This is the latest recevied weather packets stored in our database for station/object IZ4MEH-10. If no packets are shown the sender has not sent any weather packets the latest 1 day(s).
| Time | Temp. | Humidity | Pressure | Rain* | Wind** | Luminosity | Snow |
|---|---|---|---|---|---|---|---|
| 1777783199 | 13.33° C | 59% | 1017.4 hPa | - | - | - | - |
| 1777781397 | 12.78° C | 61% | 1017.4 hPa | - | - | - | - |
| 1777779596 | 12.22° C | 63% | 1017.3 hPa | - | - | - | - |
| 1777777794 | 12.22° C | 62% | 1017.5 hPa | - | - | - | - |
| 1777775993 | 12.22° C | 62% | 1017.5 hPa | - | - | - | - |
| 1777774192 | 12.22° C | 61% | 1017.6 hPa | - | - | - | - |
| 1777772390 | 13.33° C | 57% | 1017.6 hPa | - | - | - | - |
| 1777770590 | 13.89° C | 55% | 1017.7 hPa | - | - | - | - |
| 1777768789 | 13.89° C | 56% | 1017.8 hPa | - | - | - | - |
| 1777766988 | 13.89° C | 55% | 1018.1 hPa | - | - | - | - |
| 1777765187 | 14.44° C | 55% | 1018.2 hPa | - | - | - | - |
| 1777763385 | 14.44° C | 55% | 1018.4 hPa | - | - | - | - |
| 1777761583 | 15° C | 54% | 1018.5 hPa | - | - | - | - |
| 1777759782 | 15.56° C | 54% | 1018.5 hPa | - | - | - | - |
| 1777756180 | 16.67° C | 48% | 1018.5 hPa | - | - | - | - |
| 1777754378 | 17.78° C | 44% | 1018.5 hPa | - | - | - | - |
| 1777752576 | 18.89° C | 39% | 1018.7 hPa | - | - | - | - |
| 1777750775 | 19.44° C | 38% | 1018.5 hPa | - | - | - | - |
| 1777748973 | 19.44° C | 37% | 1018.4 hPa | - | - | - | - |
| 1777747171 | 20.56° C | 36% | 1018 hPa | - | - | - | - |
| 1777745370 | 21.67° C | 32% | 1018 hPa | - | - | - | - |
| 1777743568 | 22.22° C | 30% | 1017.9 hPa | - | - | - | - |
| 1777741768 | 22.78° C | 28% | 1018.1 hPa | - | - | - | - |
| 1777739967 | 23.33° C | 27% | 1018.3 hPa | - | - | - | - |
| 1777738165 | 23.33° C | 27% | 1018.5 hPa | - | - | - | - |
* Rain since midnight (hover to see other rain measurements)
** Current wind speed in m/s (hover to see current wind gust speed)